RJKB(METAR)
02/18 15:00
RJKB 180600Z 12011KT 9999 FEW025 BKNXXX 20/15 Q1020 RMK A3014=
戻る
トップページへ戻る
IMOC Co,.Ltd.